Time;durP1;ratioP1;P1;durP2;ratioP2;P2;SDS_P1;SDS_P2;PMS_P1;PMS_P2;Temp;Humidity;BMP_temperature;BMP_pressure;BME280_temperature;BME280_humidity;BME280_pressure;Samples;Min_cycle;Max_cycle;Signal;HPM_P1;HPM_P2
2022/03/15 02:04:26;;;;;;;5.50;3.67;;;;;;;7.07;77.23;102820.75;5010258;28;20376;-80
2022/03/15 02:07:05;;;;;;;7.93;3.47;;;;;;;7.09;77.29;102823.38;5022360;28;20029;-80
2022/03/15 02:09:30;;;;;;;5.30;3.20;;;;;;;7.10;77.38;102812.97;5047406;28;20037;-81
2022/03/15 02:11:56;;;;;;;3.25;2.95;;;;;;;7.10;77.25;102815.56;5017837;28;20282;-81
2022/03/15 02:14:21;;;;;;;6.00;3.38;;;;;;;7.13;77.16;102817.34;5034391;28;20162;-81
2022/03/15 02:16:47;;;;;;;5.38;3.30;;;;;;;7.14;77.43;102810.38;5017363;28;20459;-81
2022/03/15 02:19:13;;;;;;;5.80;3.60;;;;;;;7.15;77.50;102812.09;5025379;28;20444;-80
2022/03/15 02:21:38;;;;;;;6.07;3.28;;;;;;;7.16;77.54;102806.03;5038567;28;20037;-80
2022/03/15 02:24:05;;;;;;;5.28;3.72;;;;;;;7.17;77.60;102803.44;5019912;28;20056;-80
2022/03/15 02:26:30;;;;;;;6.55;4.13;;;;;;;7.17;77.49;102799.94;5024415;28;20049;-80
2022/03/15 02:28:56;;;;;;;9.10;4.30;;;;;;;7.17;77.52;102792.13;5030897;28;20039;-80
2022/03/15 02:31:21;;;;;;;6.85;4.55;;;;;;;7.18;77.78;102789.53;5032533;28;20051;-80
2022/03/15 02:33:47;;;;;;;7.30;4.22;;;;;;;7.18;77.53;102793.88;5037573;28;20029;-80
2022/03/15 02:36:13;;;;;;;8.38;3.97;;;;;;;7.19;77.70;102790.44;5040631;28;20039;-80
2022/03/15 02:38:38;;;;;;;5.38;3.95;;;;;;;7.18;77.82;102786.94;5034904;28;20296;-80
2022/03/15 02:41:05;;;;;;;7.95;4.57;;;;;;;7.19;77.67;102780.88;5021209;28;20084;-81
2022/03/15 02:43:31;;;;;;;7.60;4.90;;;;;;;7.19;77.86;102774.78;5015704;28;20028;-81
2022/03/15 02:45:57;;;;;;;5.60;4.30;;;;;;;7.21;77.84;102773.06;5031688;28;20280;-81
2022/03/15 02:48:22;;;;;;;5.15;4.45;;;;;;;7.21;77.97;102773.06;5001857;28;20077;-81
2022/03/15 02:50:47;;;;;;;6.15;4.65;;;;;;;7.23;78.31;102766.13;5013619;28;20047;-81
2022/03/15 02:53:13;;;;;;;9.93;4.95;;;;;;;7.24;78.11;102767.84;5048069;28;20041;-81
2022/03/15 02:55:38;;;;;;;8.35;5.45;;;;;;;7.24;77.90;102773.06;5011871;28;20037;-81
2022/03/15 02:58:04;;;;;;;8.57;5.97;;;;;;;7.25;78.07;102769.59;5038710;28;20284;-81
2022/03/15 03:00:29;;;;;;;10.73;4.95;;;;;;;7.27;78.19;102773.06;5049558;28;20268;-81
2022/03/15 03:02:56;;;;;;;10.23;4.65;;;;;;;7.25;78.08;102770.47;5023987;28;20203;-80
2022/03/15 03:05:22;;;;;;;7.38;5.10;;;;;;;7.27;78.05;102783.50;5030024;28;20050;-80
2022/03/15 03:07:48;;;;;;;6.15;4.63;;;;;;;7.27;78.01;102776.53;5051330;28;20043;-80
2022/03/15 03:10:16;;;;;;;6.63;5.63;;;;;;;7.27;77.87;102786.09;5054415;28;20037;-80
2022/03/15 03:12:42;;;;;;;7.88;5.30;;;;;;;7.27;77.99;102778.28;5021618;28;20025;-80
2022/03/15 03:15:11;;;;;;;11.07;5.40;;;;;;;7.27;78.08;102779.16;5020748;28;20245;-80
2022/03/15 03:17:40;;;;;;;10.02;5.80;;;;;;;7.27;78.20;102773.06;5045829;28;20287;-80
2022/03/15 03:20:11;;;;;;;12.88;6.22;;;;;;;7.26;78.01;102772.22;5037280;28;20045;-81
2022/03/15 03:22:37;;;;;;;9.77;5.10;;;;;;;7.27;78.20;102773.06;5022421;28;20586;-80
2022/03/15 03:25:04;;;;;;;9.07;5.18;;;;;;;7.26;78.13;102772.22;5032867;28;20048;-80
2022/03/15 03:27:30;;;;;;;8.85;5.10;;;;;;;7.27;77.95;102773.06;5030195;28;20109;-80
2022/03/15 03:29:57;;;;;;;10.68;6.03;;;;;;;7.26;78.08;102771.34;5047050;28;20045;-80
2022/03/15 03:32:23;;;;;;;9.55;5.90;;;;;;;7.25;77.99;102765.25;5019308;28;20257;-80
2022/03/15 03:34:48;;;;;;;11.20;5.88;;;;;;;7.25;77.99;102764.38;5017544;28;20041;-80
2022/03/15 03:37:14;;;;;;;9.88;6.10;;;;;;;7.26;77.96;102773.97;5041186;28;20044;-80
2022/03/15 03:39:39;;;;;;;9.80;6.00;;;;;;;7.24;78.26;102758.31;5046283;28;20034;-80
2022/03/15 03:42:05;;;;;;;8.13;5.75;;;;;;;7.25;78.13;102759.16;5033763;28;20038;-80
2022/03/15 03:44:33;;;;;;;8.05;5.63;;;;;;;7.24;78.18;102752.22;5034766;28;20041;-80
2022/03/15 03:46:58;;;;;;;9.40;6.80;;;;;;;7.23;78.02;102756.56;5047719;28;20041;-80
2022/03/15 03:49:24;;;;;;;11.65;6.15;;;;;;;7.23;78.10;102753.09;5014602;28;20076;-81
2022/03/15 03:51:49;;;;;;;8.75;5.88;;;;;;;7.24;78.44;102754.81;5039077;28;20076;-83
2022/03/15 03:54:15;;;;;;;6.78;5.70;;;;;;;7.22;78.13;102748.72;5029282;28;20109;-83
2022/03/15 03:56:40;;;;;;;8.88;6.05;;;;;;;7.23;78.19;102753.09;5018066;28;20045;-83
2022/03/15 03:59:06;;;;;;;9.73;6.18;;;;;;;7.22;78.28;102753.94;5026518;28;20040;-83
2022/03/15 04:01:31;;;;;;;10.13;6.05;;;;;;;7.22;78.26;102753.94;5040726;28;20273;-83
2022/03/15 04:04:03;;;;;;;8.85;6.47;;;;;;;7.22;78.16;102753.94;5057700;28;20112;-83
2022/03/15 04:06:28;;;;;;;12.00;7.00;;;;;;;7.23;78.26;102760.91;5022831;28;20045;-83
2022/03/15 04:08:56;;;;;;;11.80;6.57;;;;;;;7.21;78.29;102755.69;5033318;28;20608;-83
2022/03/15 04:11:21;;;;;;;10.00;6.35;;;;;;;7.23;78.43;102753.09;5046853;28;20096;-83
2022/03/15 04:13:47;;;;;;;10.43;6.47;;;;;;;7.22;78.56;102748.72;5039963;28;20017;-83
2022/03/15 04:16:13;;;;;;;7.10;6.13;;;;;;;7.22;78.52;102753.94;5031279;28;20229;-83
2022/03/15 04:18:38;;;;;;;8.90;6.30;;;;;;;7.24;78.52;102747.88;5057375;28;20059;-83
2022/03/15 04:21:04;;;;;;;8.80;6.05;;;;;;;7.24;78.58;102754.81;5016353;28;20349;-83
2022/03/15 04:23:30;;;;;;;8.80;6.88;;;;;;;7.24;78.37;102753.09;5020128;28;20036;-83
2022/03/15 04:25:55;;;;;;;9.77;6.43;;;;;;;7.25;78.60;102746.16;5053819;28;20044;-83
2022/03/15 04:28:21;;;;;;;10.38;6.95;;;;;;;7.23;78.32;102748.75;5046186;28;20022;-83
2022/03/15 04:30:46;;;;;;;8.05;6.18;;;;;;;7.23;78.31;102740.91;5032109;28;20064;-83
2022/03/15 04:33:12;;;;;;;10.02;6.38;;;;;;;7.24;78.18;102744.38;5040136;28;20033;-83
2022/03/15 04:35:37;;;;;;;12.93;6.88;;;;;;;7.23;78.18;102746.13;5051761;28;20370;-83
2022/03/15 04:38:02;;;;;;;9.30;6.28;;;;;;;7.23;78.24;102742.66;5038539;28;20120;-83
2022/03/15 04:40:28;;;;;;;9.75;7.15;;;;;;;7.22;78.43;102743.50;5044504;28;20333;-83
2022/03/15 04:42:54;;;;;;;8.93;6.30;;;;;;;7.21;78.29;102742.66;5057531;28;20040;-83
2022/03/15 04:45:21;;;;;;;11.38;6.25;;;;;;;7.20;78.22;102743.50;5052782;28;20264;-83
2022/03/15 04:47:47;;;;;;;11.88;6.85;;;;;;;7.20;78.33;102746.09;5042461;28;20033;-83
2022/03/15 04:50:12;;;;;;;11.57;6.80;;;;;;;7.20;78.25;102742.66;5047466;28;20115;-83
2022/03/15 04:52:38;;;;;;;13.43;7.57;;;;;;;7.19;78.22;102733.97;5038091;28;20048;-83
2022/03/15 04:55:04;;;;;;;10.82;7.15;;;;;;;7.20;78.31;102729.63;5053920;28;20028;-83
2022/03/15 04:57:30;;;;;;;7.10;6.07;;;;;;;7.20;78.23;102727.88;5057490;28;20274;-83
2022/03/15 04:59:55;;;;;;;8.60;6.30;;;;;;;7.19;78.42;102726.16;5044046;28;20041;-83
2022/03/15 05:02:21;;;;;;;10.15;6.65;;;;;;;7.19;78.34;102718.31;4987128;28;20253;-83
2022/03/15 05:04:47;;;;;;;12.13;7.50;;;;;;;7.19;78.49;102718.31;5005956;28;20416;-83
2022/03/15 05:07:12;;;;;;;9.98;6.68;;;;;;;7.20;78.41;102713.97;5040275;28;20033;-83
2022/03/15 05:11:06;;;;;;;9.90;6.90;;;;;;;7.20;78.40;102713.97;5005478;28;20337;-83
2022/03/15 05:12:27;;;;;;;11.30;6.83;;;;;;;7.20;78.49;102711.38;5032598;28;20040;-83
2022/03/15 05:14:52;;;;;;;8.55;7.20;;;;;;;7.19;78.56;102710.50;5055853;28;20033;-83
2022/03/15 05:17:19;;;;;;;9.52;6.85;;;;;;;7.20;78.75;102703.56;5025345;28;20041;-83
2022/03/15 05:19:46;;;;;;;10.75;7.20;;;;;;;7.19;78.76;102700.09;5018599;28;20394;-83
2022/03/15 05:22:12;;;;;;;9.15;6.60;;;;;;;7.20;78.75;102698.34;5053139;28;20037;-83
2022/03/15 05:24:38;;;;;;;15.13;7.57;;;;;;;7.20;78.84;102699.19;5042590;28;20032;-83
2022/03/15 05:27:03;;;;;;;9.35;6.40;;;;;;;7.21;79.05;102692.28;5019809;28;20262;-83
2022/03/15 05:29:29;;;;;;;13.13;7.50;;;;;;;7.21;79.07;102700.09;5055861;28;20032;-83
2022/03/15 05:31:55;;;;;;;11.98;7.93;;;;;;;7.21;78.92;102698.34;5022454;28;20034;-83
2022/03/15 05:34:20;;;;;;;8.48;6.68;;;;;;;7.22;78.84;102699.22;5040525;28;20047;-83
2022/03/15 05:36:48;;;;;;;9.27;6.18;;;;;;;7.22;78.84;102694.00;5053982;28;20033;-83
2022/03/15 05:39:14;;;;;;;11.57;6.68;;;;;;;7.23;78.74;102699.22;5035642;28;20313;-83
2022/03/15 05:41:40;;;;;;;9.27;7.20;;;;;;;7.21;78.93;102692.28;5002909;28;20040;-83
2022/03/15 05:44:06;;;;;;;12.23;7.35;;;;;;;7.20;79.67;102687.91;5019063;28;20387;-83
2022/03/15 05:46:32;;;;;;;8.98;7.38;;;;;;;7.19;79.74;102688.81;5002964;28;20021;-83
2022/03/15 05:48:58;;;;;;;7.50;6.70;;;;;;;7.20;79.65;102694.00;5036851;28;20068;-83
2022/03/15 05:51:23;;;;;;;8.95;6.60;;;;;;;7.20;79.43;102687.91;5036928;28;20032;-83
2022/03/15 05:53:49;;;;;;;11.25;6.63;;;;;;;7.19;79.43;102683.59;5038909;28;20041;-83
2022/03/15 05:56:14;;;;;;;13.63;7.03;;;;;;;7.20;79.46;102680.09;5057312;28;20162;-83
2022/03/15 05:58:41;;;;;;;13.38;7.38;;;;;;;7.19;79.53;102670.56;5056696;28;20044;-83
2022/03/15 06:01:07;;;;;;;11.43;7.68;;;;;;;7.20;79.74;102669.69;5038839;28;20308;-83
2022/03/15 06:03:32;;;;;;;10.23;7.35;;;;;;;7.19;79.77;102670.56;5021863;28;20033;-83
2022/03/15 06:05:58;;;;;;;10.85;7.47;;;;;;;7.19;79.68;102665.34;5050543;28;20041;-83
2022/03/15 06:08:23;;;;;;;9.65;7.47;;;;;;;7.19;79.61;102670.56;5042680;28;20447;-83
2022/03/15 06:10:48;;;;;;;10.35;7.15;;;;;;;7.19;79.82;102665.34;5049908;28;20329;-83
2022/03/15 06:13:14;;;;;;;13.05;7.95;;;;;;;7.19;79.38;102671.41;5001518;28;20341;-83
2022/03/15 06:15:39;;;;;;;8.85;7.15;;;;;;;7.20;79.50;102674.88;5036845;28;20304;-83
2022/03/15 06:18:05;;;;;;;8.40;7.00;;;;;;;7.19;79.40;102673.16;5038425;28;20037;-83
2022/03/15 06:20:31;;;;;;;11.43;8.07;;;;;;;7.20;79.50;102672.28;5020562;28;20050;-83
2022/03/15 06:22:57;;;;;;;16.77;9.20;;;;;;;7.19;79.68;102673.16;5051159;28;20036;-82
2022/03/15 06:25:22;;;;;;;11.13;9.50;;;;;;;7.19;79.68;102670.56;5002525;28;20635;-84
2022/03/15 06:27:49;;;;;;;13.20;9.13;;;;;;;7.19;79.78;102674.03;5028974;28;20042;-84
